createdAt,value
2017-07-05T00:00:41.031Z,4.03
2017-07-05T00:03:07.320Z,4.07
2017-07-05T00:05:33.600Z,3.53
2017-07-05T00:07:59.868Z,4.40
2017-07-05T00:10:26.150Z,4.07
2017-07-05T00:12:52.433Z,3.90
2017-07-05T00:15:18.744Z,4.20
2017-07-05T00:17:45.041Z,3.67
2017-07-05T00:20:11.319Z,4.07
2017-07-05T00:22:37.590Z,4.50
2017-07-05T00:25:03.868Z,3.67
2017-07-05T00:27:30.165Z,3.77
2017-07-05T00:29:56.441Z,3.73
2017-07-05T00:32:22.708Z,3.97
2017-07-05T00:34:48.979Z,3.87
2017-07-05T00:37:15.272Z,4.20
2017-07-05T00:39:42.605Z,3.97
2017-07-05T00:42:09.609Z,4.63
2017-07-05T00:44:35.883Z,4.10
2017-07-05T00:47:02.885Z,4.47
2017-07-05T00:49:29.206Z,4.50
2017-07-05T00:51:55.493Z,4.03
2017-07-05T00:54:21.771Z,4.50
2017-07-05T00:56:48.045Z,3.93
2017-07-05T00:59:15.061Z,4.30
2017-07-05T01:01:41.326Z,4.07
2017-07-05T01:04:07.667Z,4.30
2017-07-05T01:09:28.207Z,4.20
2017-07-05T01:11:54.474Z,4.27
2017-07-05T01:14:20.743Z,3.83
2017-07-05T01:16:47.014Z,3.73
2017-07-05T01:19:13.322Z,3.80
2017-07-05T01:21:40.062Z,3.60
2017-07-05T01:24:06.341Z,3.70
2017-07-05T01:26:33.349Z,4.00
2017-07-05T01:29:00.616Z,3.40
2017-07-05T01:31:26.907Z,2.77
2017-07-05T01:33:53.184Z,3.90
2017-07-05T01:36:19.468Z,3.57
2017-07-05T01:38:45.769Z,4.00
2017-07-05T01:41:12.069Z,3.87
2017-07-05T01:43:38.366Z,3.60
2017-07-05T01:46:04.699Z,3.53
2017-07-05T01:48:30.995Z,3.30
2017-07-05T01:50:57.286Z,3.80
2017-07-05T01:53:23.546Z,3.40
2017-07-05T01:55:49.904Z,4.10
2017-07-05T01:58:17.901Z,3.87
2017-07-05T02:00:44.165Z,3.23
2017-07-05T02:03:11.162Z,4.27
2017-07-05T02:05:37.418Z,2.93
2017-07-05T02:08:03.694Z,3.50
2017-07-05T02:10:30.112Z,3.77
2017-07-05T02:12:56.385Z,4.17
2017-07-05T02:15:22.675Z,4.20
2017-07-05T02:17:48.978Z,3.70
2017-07-05T02:20:16.020Z,3.50
2017-07-05T02:22:42.279Z,3.13
2017-07-05T02:25:08.577Z,3.50
2017-07-05T02:27:35.595Z,3.57
2017-07-05T02:30:01.885Z,4.03
2017-07-05T02:32:28.173Z,3.67
2017-07-05T02:34:54.481Z,3.60
2017-07-05T02:37:20.748Z,3.87
2017-07-05T02:39:47.022Z,4.27
2017-07-05T02:42:13.302Z,3.77
2017-07-05T02:44:39.569Z,3.67
2017-07-05T02:47:05.821Z,3.83
2017-07-05T02:49:32.082Z,3.60
2017-07-05T02:51:58.366Z,4.37
2017-07-05T02:54:25.521Z,3.73
2017-07-05T02:56:51.790Z,3.47
2017-07-05T02:59:18.837Z,3.20
2017-07-05T03:01:45.083Z,3.17
2017-07-05T03:04:12.113Z,4.47
2017-07-05T03:06:40.141Z,3.50
2017-07-05T03:09:06.401Z,3.60
2017-07-05T03:11:33.669Z,3.70
2017-07-05T03:13:59.983Z,3.37
2017-07-05T03:16:26.213Z,4.43
2017-07-05T03:18:53.536Z,3.67
2017-07-05T03:21:19.826Z,3.53
2017-07-05T03:23:46.088Z,3.80
2017-07-05T03:26:12.362Z,4.07
2017-07-05T03:28:38.734Z,4.10
2017-07-05T03:31:05.029Z,4.00
2017-07-05T03:33:31.302Z,3.90
2017-07-05T03:35:57.637Z,3.90
2017-07-05T03:38:23.909Z,4.50
2017-07-05T03:40:50.918Z,3.57
2017-07-05T03:43:17.208Z,3.80
2017-07-05T03:45:43.473Z,4.57
2017-07-05T03:48:09.751Z,3.47
2017-07-05T03:50:36.763Z,3.60
2017-07-05T03:53:03.033Z,3.77
2017-07-05T03:55:30.122Z,4.20
2017-07-05T03:57:56.382Z,3.87
2017-07-05T04:00:22.682Z,3.67
2017-07-05T04:02:48.942Z,3.80
2017-07-05T04:05:15.198Z,2.90
2017-07-05T04:07:41.516Z,3.80
2017-07-05T04:10:07.788Z,3.87
2017-07-05T04:12:35.093Z,4.40
2017-07-05T04:15:01.357Z,3.83
2017-07-05T04:17:27.613Z,3.67
2017-07-05T04:19:53.909Z,4.00
2017-07-05T04:22:20.173Z,3.40
2017-07-05T04:24:46.706Z,4.07
2017-07-05T04:27:12.982Z,3.50
2017-07-05T04:29:40.010Z,3.30
2017-07-05T04:32:06.302Z,3.67
2017-07-05T04:34:32.564Z,3.70
2017-07-05T04:36:58.834Z,3.97
2017-07-05T04:39:25.113Z,3.73
2017-07-05T04:41:51.387Z,3.80
2017-07-05T04:44:17.669Z,3.50
2017-07-05T04:46:43.943Z,3.83
2017-07-05T04:49:10.234Z,3.87
2017-07-05T04:51:36.527Z,4.00
2017-07-05T04:54:02.805Z,3.40
2017-07-05T04:56:29.118Z,3.63
2017-07-05T04:58:55.427Z,3.40
2017-07-05T05:01:21.697Z,3.77
2017-07-05T05:03:47.970Z,3.03
2017-07-05T05:06:14.262Z,3.63
2017-07-05T05:08:41.281Z,4.10
2017-07-05T05:11:08.574Z,4.03
2017-07-05T05:13:34.841Z,4.00
2017-07-05T05:16:01.115Z,4.10
2017-07-05T05:18:28.133Z,3.60
2017-07-05T05:20:54.406Z,4.27
2017-07-05T05:23:20.954Z,3.67
2017-07-05T05:25:47.377Z,3.90
2017-07-05T05:28:13.662Z,3.70
2017-07-05T05:30:39.945Z,3.20
2017-07-05T05:33:06.234Z,3.47
2017-07-05T05:35:33.350Z,3.80
2017-07-05T05:37:59.614Z,3.73
2017-07-05T05:40:25.943Z,3.43
2017-07-05T05:42:52.229Z,3.47
2017-07-05T05:45:18.523Z,2.70
2017-07-05T05:47:44.774Z,3.10
2017-07-05T05:50:11.044Z,3.30
2017-07-05T05:52:37.314Z,3.20
2017-07-05T05:55:03.616Z,3.53
2017-07-05T05:57:29.906Z,3.50
2017-07-05T05:59:56.190Z,3.40
2017-07-05T06:02:23.261Z,3.47
2017-07-05T06:04:49.549Z,3.40
2017-07-05T06:07:15.838Z,2.90
2017-07-05T06:09:42.101Z,3.87
2017-07-05T06:12:08.353Z,2.93
2017-07-05T06:14:35.351Z,2.90
2017-07-05T06:17:01.617Z,3.10
2017-07-05T06:19:29.642Z,3.13
2017-07-05T06:21:55.908Z,3.47
2017-07-05T06:24:22.162Z,3.67
2017-07-05T06:26:48.427Z,3.67
2017-07-05T06:29:14.693Z,3.93
2017-07-05T06:31:40.969Z,3.10
2017-07-05T06:34:07.242Z,2.60
2017-07-05T06:36:33.509Z,3.30
2017-07-05T06:38:59.777Z,3.00
2017-07-05T06:41:26.049Z,2.70
2017-07-05T06:43:53.238Z,3.23
2017-07-05T06:46:19.497Z,3.27
2017-07-05T06:48:45.746Z,3.07
2017-07-05T06:51:12.747Z,2.80
2017-07-05T06:53:39.015Z,2.70
2017-07-05T06:56:05.305Z,3.33
2017-07-05T06:58:31.576Z,2.67
2017-07-05T07:00:57.836Z,2.53
2017-07-05T07:03:24.101Z,3.10
2017-07-05T07:05:51.402Z,2.93
2017-07-05T07:08:19.409Z,3.20
2017-07-05T07:10:45.665Z,3.33
2017-07-05T07:13:11.918Z,3.10
2017-07-05T07:15:38.921Z,3.07
2017-07-05T07:18:05.175Z,2.90
2017-07-05T07:20:31.493Z,2.90
2017-07-05T07:22:57.750Z,3.03
2017-07-05T07:25:25.766Z,2.50
2017-07-05T07:27:52.058Z,3.07
2017-07-05T07:30:18.326Z,2.80
2017-07-05T07:32:44.583Z,3.17
2017-07-05T07:35:11.860Z,2.60
2017-07-05T07:37:38.876Z,2.77
2017-07-05T07:40:05.145Z,2.97
2017-07-05T07:42:33.173Z,2.93
2017-07-05T07:44:59.436Z,2.73
2017-07-05T07:47:27.473Z,2.83
2017-07-05T07:49:53.745Z,2.80
2017-07-05T07:52:20.004Z,2.60
2017-07-05T07:54:46.249Z,2.87
2017-07-05T07:57:12.514Z,2.90
2017-07-05T07:59:39.580Z,3.00
2017-07-05T08:02:05.845Z,2.40
2017-07-05T08:04:32.102Z,2.90
2017-07-05T08:06:58.362Z,2.53
2017-07-05T08:09:24.622Z,2.50
2017-07-05T08:11:50.897Z,3.00
2017-07-05T08:14:17.904Z,2.90
2017-07-05T08:16:44.169Z,2.60
2017-07-05T08:19:10.426Z,2.97
2017-07-05T08:21:36.690Z,2.70
2017-07-05T08:24:02.971Z,3.10
2017-07-05T08:26:29.971Z,2.40
2017-07-05T08:28:56.233Z,2.87
2017-07-05T08:31:22.493Z,2.40
2017-07-05T08:33:48.745Z,2.40
2017-07-05T08:36:15.025Z,2.50
2017-07-05T08:38:42.034Z,2.10
2017-07-05T08:41:08.285Z,2.20
2017-07-05T08:43:34.545Z,2.60
2017-07-05T08:46:00.809Z,2.80
2017-07-05T08:48:27.119Z,2.70
2017-07-05T08:50:53.371Z,2.63
2017-07-05T08:53:19.638Z,2.87
2017-07-05T08:55:46.651Z,2.70
2017-07-05T08:58:12.914Z,2.50
2017-07-05T09:00:39.929Z,2.50
2017-07-05T09:03:06.178Z,2.63
2017-07-05T09:05:32.470Z,2.50
2017-07-05T09:07:58.738Z,2.47
2017-07-05T09:10:25.006Z,2.57
2017-07-05T09:12:51.282Z,2.23
2017-07-05T09:15:17.535Z,3.00
2017-07-05T09:17:43.787Z,2.50
2017-07-05T09:20:10.055Z,2.80
2017-07-05T09:22:36.305Z,2.33
2017-07-05T09:25:02.597Z,2.83
2017-07-05T09:27:28.925Z,2.50
2017-07-05T09:29:55.181Z,2.60
2017-07-05T09:32:21.442Z,2.53
2017-07-05T09:34:48.442Z,2.43
2017-07-05T09:37:14.714Z,2.33
2017-07-05T09:39:40.965Z,2.60
2017-07-05T09:42:07.246Z,2.40
2017-07-05T09:44:33.518Z,1.93
2017-07-05T09:46:59.781Z,2.30
2017-07-05T09:49:26.060Z,2.60
2017-07-05T09:51:53.067Z,2.80
2017-07-05T09:54:19.343Z,2.20
2017-07-05T09:56:45.604Z,2.83
2017-07-05T09:59:11.862Z,2.47
2017-07-05T10:01:38.151Z,2.37
2017-07-05T10:04:04.407Z,2.30
2017-07-05T10:06:30.685Z,2.00
2017-07-05T10:08:57.735Z,2.57
2017-07-05T10:11:24.007Z,2.50
2017-07-05T10:13:50.266Z,2.43
2017-07-05T10:16:16.585Z,2.60
2017-07-05T10:18:42.845Z,2.30
2017-07-05T10:21:09.845Z,1.80
2017-07-05T10:23:36.124Z,2.23
2017-07-05T10:26:02.385Z,2.10
2017-07-05T10:28:28.661Z,2.00
2017-07-05T10:30:55.661Z,2.10
2017-07-05T10:33:21.922Z,2.70
2017-07-05T10:35:48.182Z,3.00
2017-07-05T10:38:14.453Z,2.33
2017-07-05T10:40:40.738Z,2.40
2017-07-05T10:43:08.039Z,2.47
2017-07-05T10:45:34.335Z,2.10
2017-07-05T10:48:00.597Z,2.10
2017-07-05T10:50:26.871Z,2.70
2017-07-05T10:52:53.910Z,2.57
2017-07-05T10:55:20.901Z,2.30
2017-07-05T10:57:47.170Z,2.47
2017-07-05T11:00:13.426Z,2.23
2017-07-05T11:02:40.422Z,2.80
2017-07-05T11:05:06.694Z,2.33
2017-07-05T11:07:33.690Z,2.23
2017-07-05T11:09:59.946Z,1.80
2017-07-05T11:12:26.201Z,2.27
2017-07-05T11:14:53.208Z,2.20
2017-07-05T11:17:19.491Z,1.67
2017-07-05T11:19:45.750Z,2.63
2017-07-05T11:22:12.001Z,2.20
2017-07-05T11:24:38.274Z,2.20
2017-07-05T11:27:05.295Z,2.70
2017-07-05T11:29:32.318Z,1.83
2017-07-05T11:31:58.585Z,2.60
2017-07-05T11:34:24.867Z,2.23
2017-07-05T11:36:51.182Z,2.17
2017-07-05T11:39:17.443Z,2.10
2017-07-05T11:41:43.746Z,1.90
2017-07-05T11:44:10.005Z,2.10
2017-07-05T11:46:36.259Z,2.00
2017-07-05T11:49:02.520Z,2.03
2017-07-05T11:51:28.776Z,2.30
2017-07-05T11:53:55.122Z,2.10
2017-07-05T11:56:21.389Z,1.87
2017-07-05T11:58:47.646Z,1.87
2017-07-05T12:01:13.914Z,2.20
2017-07-05T12:03:40.922Z,2.13
2017-07-05T12:06:07.202Z,1.97
2017-07-05T12:08:34.219Z,2.00
2017-07-05T12:11:00.470Z,2.17
2017-07-05T12:13:27.466Z,2.50
2017-07-05T12:15:53.732Z,2.17
2017-07-05T12:18:20.023Z,2.20
2017-07-05T12:20:46.299Z,1.90
2017-07-05T12:23:13.343Z,1.87
2017-07-05T12:25:40.435Z,1.90
2017-07-05T12:28:06.782Z,1.70
2017-07-05T12:30:33.106Z,2.30
2017-07-05T12:32:59.386Z,1.90
2017-07-05T12:35:26.397Z,1.90
2017-07-05T12:37:52.672Z,2.00
2017-07-05T12:40:19.673Z,2.03
2017-07-05T12:42:46.965Z,2.20
2017-07-05T12:45:13.976Z,2.00
2017-07-05T12:47:40.265Z,1.60
2017-07-05T12:50:06.518Z,1.90
2017-07-05T12:52:32.786Z,1.57
2017-07-05T12:54:59.070Z,1.97
2017-07-05T12:57:25.367Z,1.60
2017-07-05T12:59:51.645Z,1.83
2017-07-05T13:02:17.925Z,1.77
2017-07-05T13:04:44.353Z,2.10
2017-07-05T13:07:10.611Z,2.00
2017-07-05T13:09:36.903Z,1.80
2017-07-05T13:12:03.921Z,1.73
2017-07-05T13:14:30.199Z,1.80
2017-07-05T13:16:56.458Z,1.90
2017-07-05T13:19:22.709Z,2.07
2017-07-05T13:21:48.990Z,2.10
2017-07-05T13:24:15.266Z,1.70
2017-07-05T13:26:41.550Z,1.80
2017-07-05T13:29:07.813Z,2.23
2017-07-05T13:31:34.067Z,2.03
2017-07-05T13:34:00.366Z,1.83
2017-07-05T13:36:26.626Z,2.03
2017-07-05T13:38:52.886Z,2.10
2017-07-05T13:41:19.145Z,2.13
2017-07-05T13:43:45.406Z,1.90
2017-07-05T13:46:11.701Z,1.83
2017-07-05T13:48:37.964Z,1.90
2017-07-05T13:51:04.235Z,1.97
2017-07-05T13:53:30.485Z,2.23
2017-07-05T13:55:56.736Z,2.40
2017-07-05T13:58:23.017Z,1.80
2017-07-05T14:00:49.269Z,2.30
2017-07-05T14:03:16.550Z,2.17
2017-07-05T14:05:42.823Z,1.80
2017-07-05T14:08:09.077Z,2.53
2017-07-05T14:10:35.406Z,2.20
2017-07-05T14:13:02.397Z,2.17
2017-07-05T14:15:29.390Z,2.13
2017-07-05T14:17:55.670Z,2.20
2017-07-05T14:20:21.934Z,2.10
2017-07-05T14:22:48.218Z,1.67
2017-07-05T14:25:14.478Z,1.93
2017-07-05T14:27:40.753Z,2.23
2017-07-05T14:30:07.006Z,2.40
2017-07-05T14:32:33.501Z,2.17
2017-07-05T14:35:00.081Z,1.83
2017-07-05T14:37:26.332Z,2.07
2017-07-05T14:39:52.582Z,2.40
2017-07-05T14:42:18.878Z,1.80
2017-07-05T14:44:46.906Z,2.33
2017-07-05T14:47:13.219Z,2.03
2017-07-05T14:49:39.482Z,2.07
2017-07-05T14:52:05.748Z,2.23
2017-07-05T14:54:32.014Z,2.20
2017-07-05T14:56:58.283Z,2.00
2017-07-05T14:59:24.562Z,2.10
2017-07-05T15:01:50.827Z,1.70
2017-07-05T15:04:17.101Z,2.30
2017-07-05T15:09:09.134Z,2.10
2017-07-05T15:11:35.415Z,2.10
2017-07-05T15:14:01.670Z,2.43
2017-07-05T15:16:28.694Z,1.80
2017-07-05T15:18:54.968Z,1.87
2017-07-05T15:21:21.233Z,2.23
2017-07-05T15:23:47.517Z,1.97
2017-07-05T15:26:13.794Z,2.23
2017-07-05T15:28:40.062Z,1.93
2017-07-05T15:31:06.344Z,2.33
2017-07-05T15:33:32.606Z,2.07
2017-07-05T15:35:58.871Z,1.87
2017-07-05T15:38:25.167Z,1.97
2017-07-05T15:40:51.431Z,1.90
2017-07-05T15:43:17.714Z,1.83
2017-07-05T15:45:43.983Z,1.97
2017-07-05T15:48:10.250Z,2.20
2017-07-05T15:50:36.509Z,1.90
2017-07-05T15:53:02.770Z,2.30
2017-07-05T15:55:29.071Z,1.77
2017-07-05T15:57:55.338Z,2.03
2017-07-05T16:00:21.605Z,2.20
2017-07-05T16:02:47.874Z,2.20
2017-07-05T16:05:14.155Z,2.27
2017-07-05T16:07:40.457Z,2.00
2017-07-05T16:10:06.718Z,2.27
2017-07-05T16:12:32.985Z,2.70
2017-07-05T16:14:59.982Z,2.33
2017-07-05T16:17:26.231Z,1.90
2017-07-05T16:19:52.538Z,2.23
2017-07-05T16:22:18.805Z,1.90
2017-07-05T16:24:45.063Z,1.90
2017-07-05T16:27:11.333Z,2.13
2017-07-05T16:29:37.593Z,2.03
2017-07-05T16:32:04.634Z,2.17
2017-07-05T16:34:30.890Z,2.30
2017-07-05T16:36:57.150Z,1.90
2017-07-05T16:39:23.418Z,1.93
2017-07-05T16:41:49.707Z,2.10
2017-07-05T16:44:15.996Z,2.10
2017-07-05T16:46:42.267Z,1.73
2017-07-05T16:49:08.522Z,2.20
2017-07-05T16:51:34.787Z,2.00
2017-07-05T16:54:01.787Z,2.40
2017-07-05T16:56:28.076Z,2.10
2017-07-05T16:58:54.336Z,2.30
2017-07-05T17:01:20.594Z,2.17
2017-07-05T17:03:46.862Z,2.20
2017-07-05T17:06:13.122Z,2.20
2017-07-05T17:08:39.405Z,2.03
2017-07-05T17:11:05.675Z,2.17
2017-07-05T17:13:31.926Z,2.13
2017-07-05T17:15:58.219Z,2.53
2017-07-05T17:18:24.482Z,2.40
2017-07-05T17:20:50.771Z,2.90
2017-07-05T17:23:17.034Z,2.40
2017-07-05T17:25:43.294Z,2.73
2017-07-05T17:28:10.307Z,3.60
2017-07-05T17:30:36.566Z,2.70
2017-07-05T17:33:03.613Z,2.13
2017-07-05T17:35:30.629Z,2.57
2017-07-05T17:37:56.888Z,2.40
2017-07-05T17:40:23.149Z,2.20
2017-07-05T17:42:49.434Z,2.47
2017-07-05T17:45:15.714Z,2.60
2017-07-05T17:47:41.987Z,2.53
2017-07-05T17:50:09.172Z,2.27
2017-07-05T17:52:35.441Z,2.80
2017-07-05T17:55:01.705Z,2.20
2017-07-05T17:57:27.991Z,2.67
2017-07-05T17:59:54.285Z,2.43
2017-07-05T18:02:20.588Z,2.20
2017-07-05T18:04:47.909Z,2.40
2017-07-05T18:07:14.174Z,2.03
2017-07-05T18:09:40.538Z,4.80
2017-07-05T18:12:06.814Z,2.50
2017-07-05T18:14:33.133Z,2.57
2017-07-05T18:17:00.221Z,3.27
2017-07-05T18:19:28.255Z,2.30
2017-07-05T18:21:54.524Z,2.00
2017-07-05T18:24:21.558Z,2.30
2017-07-05T18:26:47.818Z,2.30
2017-07-05T18:29:14.086Z,2.20
2017-07-05T18:31:40.346Z,2.23
2017-07-05T18:34:07.386Z,2.40
2017-07-05T18:36:33.685Z,2.57
2017-07-05T18:38:59.933Z,2.70
2017-07-05T18:41:26.198Z,2.90
2017-07-05T18:43:52.477Z,2.67
2017-07-05T18:46:18.767Z,2.67
2017-07-05T18:48:45.058Z,2.40
2017-07-05T18:51:11.318Z,2.50
2017-07-05T18:53:37.603Z,2.80
2017-07-05T18:56:03.861Z,2.80
2017-07-05T18:58:30.123Z,2.47
2017-07-05T19:00:56.422Z,2.07
2017-07-05T19:03:23.427Z,2.77
2017-07-05T19:05:49.681Z,2.70
2017-07-05T19:08:16.689Z,2.93
2017-07-05T19:10:42.965Z,2.60
2017-07-05T19:13:09.984Z,2.43
2017-07-05T19:15:36.249Z,3.00
2017-07-05T19:18:02.514Z,2.37
2017-07-05T19:20:28.775Z,2.40
2017-07-05T19:22:55.037Z,2.67
2017-07-05T19:25:21.362Z,2.40
2017-07-05T19:27:48.379Z,3.03
2017-07-05T19:30:14.639Z,2.40
2017-07-05T19:32:40.900Z,2.50
2017-07-05T19:35:08.215Z,2.97
2017-07-05T19:37:34.505Z,2.97
2017-07-05T19:40:00.766Z,2.93
2017-07-05T19:42:27.030Z,2.53
2017-07-05T19:44:53.323Z,3.30
2017-07-05T19:47:20.329Z,3.40
2017-07-05T19:49:46.613Z,3.50
2017-07-05T19:52:13.643Z,2.97
2017-07-05T19:54:39.903Z,3.00
2017-07-05T19:57:06.182Z,2.90
2017-07-05T19:59:32.575Z,3.10
2017-07-05T20:01:58.849Z,2.97
2017-07-05T20:04:25.113Z,3.40
2017-07-05T20:06:51.372Z,3.03
2017-07-05T20:09:17.629Z,3.20
2017-07-05T20:11:43.943Z,2.90
2017-07-05T20:14:10.246Z,2.77
2017-07-05T20:16:36.534Z,2.80
2017-07-05T20:19:03.545Z,3.40
2017-07-05T20:21:29.802Z,3.60
2017-07-05T20:23:56.057Z,3.07
2017-07-05T20:26:22.350Z,4.10
2017-07-05T20:28:48.618Z,3.50
2017-07-05T20:31:14.890Z,3.23
2017-07-05T20:33:41.179Z,3.37
2017-07-05T20:36:07.439Z,3.10
2017-07-05T20:38:33.718Z,3.00
2017-07-05T20:41:00.718Z,4.03
2017-07-05T20:43:28.367Z,2.80
2017-07-05T20:45:54.687Z,3.50
2017-07-05T20:48:20.992Z,3.63
2017-07-05T20:50:48.353Z,2.97
2017-07-05T20:53:14.652Z,3.70
2017-07-05T20:55:40.965Z,3.40
2017-07-05T20:58:07.287Z,3.30
2017-07-05T21:00:33.599Z,3.77
2017-07-05T21:02:59.916Z,3.23
2017-07-05T21:05:26.232Z,4.00
2017-07-05T21:07:52.535Z,3.20
2017-07-05T21:10:18.850Z,3.70
2017-07-05T21:12:45.159Z,3.33
2017-07-05T21:15:11.477Z,4.20
2017-07-05T21:17:37.775Z,4.10
2017-07-05T21:20:04.087Z,4.00
2017-07-05T21:22:32.151Z,4.60
2017-07-05T21:24:58.481Z,4.23
2017-07-05T21:27:24.818Z,4.10
2017-07-05T21:29:51.904Z,4.20
2017-07-05T21:32:18.203Z,4.63
2017-07-05T21:34:45.243Z,3.93
2017-07-05T21:37:12.310Z,4.30
2017-07-05T21:39:38.644Z,3.70
2017-07-05T21:42:04.947Z,4.10
2017-07-05T21:44:31.259Z,4.57
2017-07-05T21:46:57.558Z,4.23
2017-07-05T21:49:23.875Z,5.20
2017-07-05T21:51:50.204Z,4.77
2017-07-05T21:54:16.525Z,4.33
2017-07-05T21:56:42.833Z,4.40
2017-07-05T21:59:09.883Z,4.80
2017-07-05T22:01:36.935Z,4.30
2017-07-05T22:04:03.264Z,4.47
2017-07-05T22:06:30.339Z,4.40
2017-07-05T22:08:56.693Z,4.43
2017-07-05T22:11:24.043Z,3.97
2017-07-05T22:13:51.409Z,4.23
2017-07-05T22:16:17.736Z,4.50
2017-07-05T22:18:44.039Z,4.47
2017-07-05T22:21:10.357Z,4.40
2017-07-05T22:23:37.681Z,4.30
2017-07-05T22:26:05.580Z,4.90
2017-07-05T22:28:31.945Z,4.10
2017-07-05T22:30:58.262Z,4.13
2017-07-05T22:33:24.579Z,4.73
2017-07-05T22:35:50.875Z,4.60
2017-07-05T22:38:17.921Z,5.30
2017-07-05T22:40:44.980Z,4.93
2017-07-05T22:43:11.292Z,4.60
2017-07-05T22:45:38.351Z,4.20
2017-07-05T22:48:04.652Z,5.00
2017-07-05T22:50:30.957Z,5.00
2017-07-05T22:52:57.275Z,4.97
2017-07-05T22:55:23.573Z,4.50
2017-07-05T22:57:49.883Z,5.00
2017-07-05T23:00:16.933Z,4.90
2017-07-05T23:02:43.993Z,5.43
2017-07-05T23:05:10.323Z,4.17
2017-07-05T23:07:36.627Z,4.90
2017-07-05T23:10:02.936Z,4.43
2017-07-05T23:12:29.256Z,4.43
2017-07-05T23:14:55.587Z,4.67
2017-07-05T23:17:21.920Z,4.50
2017-07-05T23:19:48.244Z,5.20
2017-07-05T23:22:14.509Z,4.43
2017-07-05T23:24:40.769Z,5.37
2017-07-05T23:27:07.062Z,5.13
2017-07-05T23:29:33.357Z,4.83
2017-07-05T23:31:59.622Z,4.53
2017-07-05T23:34:25.872Z,4.87
2017-07-05T23:36:52.868Z,5.30
2017-07-05T23:39:19.129Z,5.40
2017-07-05T23:41:45.414Z,5.50
2017-07-05T23:44:11.687Z,5.30
2017-07-05T23:46:37.962Z,5.30
2017-07-05T23:49:04.243Z,4.70
2017-07-05T23:51:30.508Z,5.80
2017-07-05T23:53:56.807Z,4.60
2017-07-05T23:56:23.818Z,5.40
2017-07-05T23:58:50.082Z,4.87
